sensor_id;sensor_type;location;lat;lon;timestamp;P1;durP1;ratioP1;P2;durP2;ratioP2
26516;SDS011;14190;51.342;6.338;2022-12-17T00:02:13;121.77;;;49.40;;
26516;SDS011;14190;51.342;6.338;2022-12-17T00:04:59;124.40;;;50.08;;
26516;SDS011;14190;51.342;6.338;2022-12-17T00:07:45;127.15;;;50.50;;
26516;SDS011;14190;51.342;6.338;2022-12-17T00:10:30;117.60;;;50.15;;
26516;SDS011;14190;51.342;6.338;2022-12-17T00:13:17;122.10;;;50.25;;
26516;SDS011;14190;51.342;6.338;2022-12-17T00:16:02;125.62;;;50.03;;
26516;SDS011;14190;51.342;6.338;2022-12-17T00:18:48;110.12;;;48.35;;
26516;SDS011;14190;51.342;6.338;2022-12-17T00:21:34;105.72;;;46.28;;
26516;SDS011;14190;51.342;6.338;2022-12-17T00:24:19;114.22;;;50.50;;
26516;SDS011;14190;51.342;6.338;2022-12-17T00:27:05;116.73;;;50.25;;
26516;SDS011;14190;51.342;6.338;2022-12-17T00:29:51;120.82;;;49.63;;
26516;SDS011;14190;51.342;6.338;2022-12-17T00:32:36;114.70;;;49.03;;
26516;SDS011;14190;51.342;6.338;2022-12-17T00:35:22;117.97;;;48.90;;
26516;SDS011;14190;51.342;6.338;2022-12-17T00:38:16;109.52;;;47.48;;
26516;SDS011;14190;51.342;6.338;2022-12-17T00:40:59;114.20;;;45.38;;
26516;SDS011;14190;51.342;6.338;2022-12-17T00:43:37;110.78;;;47.35;;
26516;SDS011;14190;51.342;6.338;2022-12-17T00:46:22;119.08;;;50.70;;
26516;SDS011;14190;51.342;6.338;2022-12-17T00:49:09;122.30;;;51.63;;
26516;SDS011;14190;51.342;6.338;2022-12-17T00:51:56;126.15;;;51.95;;
26516;SDS011;14190;51.342;6.338;2022-12-17T00:54:42;112.52;;;50.15;;
26516;SDS011;14190;51.342;6.338;2022-12-17T00:57:28;121.90;;;52.65;;
26516;SDS011;14190;51.342;6.338;2022-12-17T01:00:14;125.22;;;52.00;;
26516;SDS011;14190;51.342;6.338;2022-12-17T01:03:06;128.32;;;52.67;;
26516;SDS011;14190;51.342;6.338;2022-12-17T01:05:50;112.05;;;49.03;;
26516;SDS011;14190;51.342;6.338;2022-12-17T01:08:35;122.58;;;50.83;;
26516;SDS011;14190;51.342;6.338;2022-12-17T01:11:22;119.87;;;49.58;;
26516;SDS011;14190;51.342;6.338;2022-12-17T01:14:07;125.65;;;52.30;;
26516;SDS011;14190;51.342;6.338;2022-12-17T01:16:53;115.52;;;48.52;;
26516;SDS011;14190;51.342;6.338;2022-12-17T01:19:38;114.77;;;48.83;;
26516;SDS011;14190;51.342;6.338;2022-12-17T01:22:24;114.60;;;48.60;;
26516;SDS011;14190;51.342;6.338;2022-12-17T01:25:10;117.60;;;48.15;;
26516;SDS011;14190;51.342;6.338;2022-12-17T01:27:57;118.17;;;47.88;;
26516;SDS011;14190;51.342;6.338;2022-12-17T01:30:43;114.60;;;50.33;;
26516;SDS011;14190;51.342;6.338;2022-12-17T01:33:30;126.62;;;50.17;;
26516;SDS011;14190;51.342;6.338;2022-12-17T01:36:16;118.47;;;49.67;;
26516;SDS011;14190;51.342;6.338;2022-12-17T01:39:01;113.25;;;47.98;;
26516;SDS011;14190;51.342;6.338;2022-12-17T01:41:47;120.33;;;50.67;;
26516;SDS011;14190;51.342;6.338;2022-12-17T01:47:20;119.47;;;53.08;;
26516;SDS011;14190;51.342;6.338;2022-12-17T01:50:05;121.47;;;52.67;;
26516;SDS011;14190;51.342;6.338;2022-12-17T01:52:52;133.93;;;54.40;;
26516;SDS011;14190;51.342;6.338;2022-12-17T01:55:28;126.72;;;52.35;;
26516;SDS011;14190;51.342;6.338;2022-12-17T01:58:14;119.93;;;50.70;;
26516;SDS011;14190;51.342;6.338;2022-12-17T02:00:59;122.42;;;49.63;;
26516;SDS011;14190;51.342;6.338;2022-12-17T02:03:45;117.28;;;49.15;;
26516;SDS011;14190;51.342;6.338;2022-12-17T02:06:31;123.30;;;51.85;;
26516;SDS011;14190;51.342;6.338;2022-12-17T02:09:24;127.50;;;51.77;;
26516;SDS011;14190;51.342;6.338;2022-12-17T02:12:20;121.00;;;48.78;;
26516;SDS011;14190;51.342;6.338;2022-12-17T02:15:09;118.67;;;47.90;;
26516;SDS011;14190;51.342;6.338;2022-12-17T02:17:54;123.75;;;50.83;;
26516;SDS011;14190;51.342;6.338;2022-12-17T02:20:45;123.53;;;49.15;;
26516;SDS011;14190;51.342;6.338;2022-12-17T02:23:37;124.80;;;48.80;;
26516;SDS011;14190;51.342;6.338;2022-12-17T02:29:18;129.65;;;51.08;;
26516;SDS011;14190;51.342;6.338;2022-12-17T02:32:06;132.87;;;50.55;;
26516;SDS011;14190;51.342;6.338;2022-12-17T02:34:52;138.62;;;52.50;;
26516;SDS011;14190;51.342;6.338;2022-12-17T02:37:44;142.70;;;54.15;;
26516;SDS011;14190;51.342;6.338;2022-12-17T02:40:26;136.25;;;51.23;;
26516;SDS011;14190;51.342;6.338;2022-12-17T02:43:12;145.10;;;54.75;;
26516;SDS011;14190;51.342;6.338;2022-12-17T02:45:58;138.40;;;52.27;;
26516;SDS011;14190;51.342;6.338;2022-12-17T02:48:43;145.30;;;52.23;;
26516;SDS011;14190;51.342;6.338;2022-12-17T02:51:30;142.50;;;50.43;;
26516;SDS011;14190;51.342;6.338;2022-12-17T02:54:16;151.27;;;51.25;;
26516;SDS011;14190;51.342;6.338;2022-12-17T02:57:03;136.12;;;47.88;;
26516;SDS011;14190;51.342;6.338;2022-12-17T02:59:49;154.55;;;49.08;;
26516;SDS011;14190;51.342;6.338;2022-12-17T03:02:34;160.67;;;52.13;;
26516;SDS011;14190;51.342;6.338;2022-12-17T03:05:20;147.60;;;49.10;;
26516;SDS011;14190;51.342;6.338;2022-12-17T03:08:05;166.60;;;49.55;;
26516;SDS011;14190;51.342;6.338;2022-12-17T03:10:51;164.43;;;52.15;;
26516;SDS011;14190;51.342;6.338;2022-12-17T03:13:37;157.05;;;49.53;;
26516;SDS011;14190;51.342;6.338;2022-12-17T03:16:23;169.72;;;48.58;;
26516;SDS011;14190;51.342;6.338;2022-12-17T03:19:09;166.95;;;49.00;;
26516;SDS011;14190;51.342;6.338;2022-12-17T03:21:55;158.93;;;46.77;;
26516;SDS011;14190;51.342;6.338;2022-12-17T03:24:40;162.88;;;49.53;;
26516;SDS011;14190;51.342;6.338;2022-12-17T03:27:26;156.75;;;50.12;;
26516;SDS011;14190;51.342;6.338;2022-12-17T03:30:11;174.23;;;50.12;;
26516;SDS011;14190;51.342;6.338;2022-12-17T03:32:57;190.12;;;49.18;;
26516;SDS011;14190;51.342;6.338;2022-12-17T03:35:42;160.63;;;46.88;;
26516;SDS011;14190;51.342;6.338;2022-12-17T03:38:28;167.13;;;49.58;;
26516;SDS011;14190;51.342;6.338;2022-12-17T03:41:13;171.35;;;49.50;;
26516;SDS011;14190;51.342;6.338;2022-12-17T03:44:01;172.95;;;51.68;;
26516;SDS011;14190;51.342;6.338;2022-12-17T03:46:47;152.60;;;50.30;;
26516;SDS011;14190;51.342;6.338;2022-12-17T03:49:32;146.70;;;49.05;;
26516;SDS011;14190;51.342;6.338;2022-12-17T03:52:17;158.32;;;46.85;;
26516;SDS011;14190;51.342;6.338;2022-12-17T03:55:02;165.90;;;48.45;;
26516;SDS011;14190;51.342;6.338;2022-12-17T03:57:48;180.55;;;50.75;;
26516;SDS011;14190;51.342;6.338;2022-12-17T04:00:33;181.20;;;51.18;;
26516;SDS011;14190;51.342;6.338;2022-12-17T04:03:18;165.65;;;47.73;;
26516;SDS011;14190;51.342;6.338;2022-12-17T04:06:04;166.55;;;48.30;;
26516;SDS011;14190;51.342;6.338;2022-12-17T04:08:50;169.02;;;50.20;;
26516;SDS011;14190;51.342;6.338;2022-12-17T04:11:35;174.30;;;53.28;;
26516;SDS011;14190;51.342;6.338;2022-12-17T04:14:21;161.18;;;50.92;;
26516;SDS011;14190;51.342;6.338;2022-12-17T04:17:06;163.12;;;53.70;;
26516;SDS011;14190;51.342;6.338;2022-12-17T04:19:52;172.62;;;51.48;;
26516;SDS011;14190;51.342;6.338;2022-12-17T04:22:37;168.62;;;50.33;;
26516;SDS011;14190;51.342;6.338;2022-12-17T04:25:23;174.25;;;50.85;;
26516;SDS011;14190;51.342;6.338;2022-12-17T04:28:08;165.52;;;52.03;;
26516;SDS011;14190;51.342;6.338;2022-12-17T04:30:54;166.80;;;51.88;;
26516;SDS011;14190;51.342;6.338;2022-12-17T04:33:39;181.25;;;53.92;;
26516;SDS011;14190;51.342;6.338;2022-12-17T04:36:18;153.78;;;52.78;;
26516;SDS011;14190;51.342;6.338;2022-12-17T04:39:04;169.37;;;55.88;;
26516;SDS011;14190;51.342;6.338;2022-12-17T04:41:49;161.32;;;53.92;;
26516;SDS011;14190;51.342;6.338;2022-12-17T04:44:34;164.52;;;51.98;;
26516;SDS011;14190;51.342;6.338;2022-12-17T04:47:20;161.32;;;55.60;;
26516;SDS011;14190;51.342;6.338;2022-12-17T04:50:05;157.37;;;55.80;;
26516;SDS011;14190;51.342;6.338;2022-12-17T04:52:58;150.68;;;52.43;;
26516;SDS011;14190;51.342;6.338;2022-12-17T04:55:38;153.95;;;55.88;;
26516;SDS011;14190;51.342;6.338;2022-12-17T04:58:23;147.90;;;53.30;;
26516;SDS011;14190;51.342;6.338;2022-12-17T05:01:08;169.62;;;60.28;;
26516;SDS011;14190;51.342;6.338;2022-12-17T05:03:56;160.95;;;55.80;;
26516;SDS011;14190;51.342;6.338;2022-12-17T05:06:42;163.55;;;55.58;;
26516;SDS011;14190;51.342;6.338;2022-12-17T05:09:27;151.65;;;52.75;;
26516;SDS011;14190;51.342;6.338;2022-12-17T05:12:13;154.12;;;52.93;;
26516;SDS011;14190;51.342;6.338;2022-12-17T05:14:59;154.60;;;53.25;;
26516;SDS011;14190;51.342;6.338;2022-12-17T05:17:44;153.30;;;52.17;;
26516;SDS011;14190;51.342;6.338;2022-12-17T05:20:30;150.00;;;50.92;;
26516;SDS011;14190;51.342;6.338;2022-12-17T05:23:15;150.60;;;47.88;;
26516;SDS011;14190;51.342;6.338;2022-12-17T05:28:49;146.30;;;50.43;;
26516;SDS011;14190;51.342;6.338;2022-12-17T05:31:34;152.72;;;49.63;;
26516;SDS011;14190;51.342;6.338;2022-12-17T05:34:20;160.32;;;51.92;;
26516;SDS011;14190;51.342;6.338;2022-12-17T05:37:06;156.78;;;52.78;;
26516;SDS011;14190;51.342;6.338;2022-12-17T05:39:51;155.63;;;54.88;;
26516;SDS011;14190;51.342;6.338;2022-12-17T05:42:36;154.85;;;53.70;;
26516;SDS011;14190;51.342;6.338;2022-12-17T05:45:22;153.55;;;52.03;;
26516;SDS011;14190;51.342;6.338;2022-12-17T05:48:07;156.90;;;53.75;;
26516;SDS011;14190;51.342;6.338;2022-12-17T05:50:53;161.18;;;54.65;;
26516;SDS011;14190;51.342;6.338;2022-12-17T05:53:39;154.97;;;54.53;;
26516;SDS011;14190;51.342;6.338;2022-12-17T05:56:24;159.20;;;52.93;;
26516;SDS011;14190;51.342;6.338;2022-12-17T05:59:09;155.15;;;53.25;;
26516;SDS011;14190;51.342;6.338;2022-12-17T06:01:55;151.97;;;52.03;;
26516;SDS011;14190;51.342;6.338;2022-12-17T06:04:40;145.17;;;52.20;;
26516;SDS011;14190;51.342;6.338;2022-12-17T06:07:26;156.97;;;54.55;;
26516;SDS011;14190;51.342;6.338;2022-12-17T06:10:11;153.32;;;52.60;;
26516;SDS011;14190;51.342;6.338;2022-12-17T06:12:57;153.12;;;54.90;;
26516;SDS011;14190;51.342;6.338;2022-12-17T06:15:42;149.82;;;52.67;;
26516;SDS011;14190;51.342;6.338;2022-12-17T06:18:30;151.15;;;53.48;;
26516;SDS011;14190;51.342;6.338;2022-12-17T06:21:15;151.27;;;56.02;;
26516;SDS011;14190;51.342;6.338;2022-12-17T06:24:00;144.87;;;53.60;;
26516;SDS011;14190;51.342;6.338;2022-12-17T06:26:46;159.07;;;57.35;;
26516;SDS011;14190;51.342;6.338;2022-12-17T06:29:31;157.40;;;56.08;;
26516;SDS011;14190;51.342;6.338;2022-12-17T06:32:17;136.75;;;52.67;;
26516;SDS011;14190;51.342;6.338;2022-12-17T06:35:02;142.85;;;51.08;;
26516;SDS011;14190;51.342;6.338;2022-12-17T06:37:56;145.15;;;51.30;;
26516;SDS011;14190;51.342;6.338;2022-12-17T06:40:35;147.45;;;52.83;;
26516;SDS011;14190;51.342;6.338;2022-12-17T06:43:20;141.60;;;52.53;;
26516;SDS011;14190;51.342;6.338;2022-12-17T06:46:06;132.87;;;52.73;;
26516;SDS011;14190;51.342;6.338;2022-12-17T06:48:51;129.40;;;49.10;;
26516;SDS011;14190;51.342;6.338;2022-12-17T06:51:39;119.45;;;45.88;;
26516;SDS011;14190;51.342;6.338;2022-12-17T06:54:25;101.90;;;44.00;;
26516;SDS011;14190;51.342;6.338;2022-12-17T06:57:11;105.87;;;42.33;;
26516;SDS011;14190;51.342;6.338;2022-12-17T06:59:56;102.72;;;41.30;;
26516;SDS011;14190;51.342;6.338;2022-12-17T07:02:44;111.30;;;44.15;;
26516;SDS011;14190;51.342;6.338;2022-12-17T07:05:31;103.83;;;43.20;;
26516;SDS011;14190;51.342;6.338;2022-12-17T07:08:17;103.75;;;41.63;;
26516;SDS011;14190;51.342;6.338;2022-12-17T07:11:03;99.10;;;40.70;;
26516;SDS011;14190;51.342;6.338;2022-12-17T07:13:48;95.17;;;40.85;;
26516;SDS011;14190;51.342;6.338;2022-12-17T07:16:36;98.25;;;40.65;;
26516;SDS011;14190;51.342;6.338;2022-12-17T07:19:22;92.85;;;40.40;;
26516;SDS011;14190;51.342;6.338;2022-12-17T07:22:07;102.97;;;45.35;;
26516;SDS011;14190;51.342;6.338;2022-12-17T07:24:52;100.02;;;41.88;;
26516;SDS011;14190;51.342;6.338;2022-12-17T07:27:38;97.17;;;41.10;;
26516;SDS011;14190;51.342;6.338;2022-12-17T07:30:24;103.17;;;41.77;;
26516;SDS011;14190;51.342;6.338;2022-12-17T07:33:11;102.27;;;39.92;;
26516;SDS011;14190;51.342;6.338;2022-12-17T07:35:59;91.97;;;35.83;;
26516;SDS011;14190;51.342;6.338;2022-12-17T07:38:46;88.50;;;36.28;;
26516;SDS011;14190;51.342;6.338;2022-12-17T07:41:31;99.37;;;40.38;;
26516;SDS011;14190;51.342;6.338;2022-12-17T07:44:16;90.85;;;38.53;;
26516;SDS011;14190;51.342;6.338;2022-12-17T07:47:02;91.10;;;38.23;;
26516;SDS011;14190;51.342;6.338;2022-12-17T07:49:48;92.22;;;38.38;;
26516;SDS011;14190;51.342;6.338;2022-12-17T07:52:33;89.58;;;39.27;;
26516;SDS011;14190;51.342;6.338;2022-12-17T07:55:19;81.20;;;32.17;;
26516;SDS011;14190;51.342;6.338;2022-12-17T07:58:05;84.00;;;34.83;;
26516;SDS011;14190;51.342;6.338;2022-12-17T08:00:51;80.97;;;33.45;;
26516;SDS011;14190;51.342;6.338;2022-12-17T08:03:37;79.35;;;32.53;;
26516;SDS011;14190;51.342;6.338;2022-12-17T08:06:23;76.42;;;32.03;;
26516;SDS011;14190;51.342;6.338;2022-12-17T08:09:10;74.22;;;31.07;;
26516;SDS011;14190;51.342;6.338;2022-12-17T08:11:55;73.70;;;33.53;;
26516;SDS011;14190;51.342;6.338;2022-12-17T08:14:41;78.90;;;32.45;;
26516;SDS011;14190;51.342;6.338;2022-12-17T08:17:28;77.17;;;32.93;;
26516;SDS011;14190;51.342;6.338;2022-12-17T08:20:14;76.10;;;33.92;;
26516;SDS011;14190;51.342;6.338;2022-12-17T08:23:01;81.45;;;35.23;;
26516;SDS011;14190;51.342;6.338;2022-12-17T08:25:46;79.32;;;35.43;;
26516;SDS011;14190;51.342;6.338;2022-12-17T08:28:32;85.45;;;34.88;;
26516;SDS011;14190;51.342;6.338;2022-12-17T08:31:18;88.22;;;35.55;;
26516;SDS011;14190;51.342;6.338;2022-12-17T08:34:04;72.32;;;31.97;;
26516;SDS011;14190;51.342;6.338;2022-12-17T08:36:50;77.47;;;30.35;;
26516;SDS011;14190;51.342;6.338;2022-12-17T08:39:35;69.70;;;28.87;;
26516;SDS011;14190;51.342;6.338;2022-12-17T08:42:22;65.22;;;28.87;;
26516;SDS011;14190;51.342;6.338;2022-12-17T08:45:08;71.97;;;31.00;;
26516;SDS011;14190;51.342;6.338;2022-12-17T08:48:00;68.07;;;30.12;;
26516;SDS011;14190;51.342;6.338;2022-12-17T08:50:40;74.77;;;31.20;;
26516;SDS011;14190;51.342;6.338;2022-12-17T08:53:26;70.03;;;28.87;;
26516;SDS011;14190;51.342;6.338;2022-12-17T08:56:11;72.75;;;30.43;;
26516;SDS011;14190;51.342;6.338;2022-12-17T08:58:57;68.33;;;30.20;;
26516;SDS011;14190;51.342;6.338;2022-12-17T09:01:42;69.92;;;29.82;;
26516;SDS011;14190;51.342;6.338;2022-12-17T09:04:30;65.72;;;30.15;;
26516;SDS011;14190;51.342;6.338;2022-12-17T09:07:15;83.52;;;32.78;;
26516;SDS011;14190;51.342;6.338;2022-12-17T09:10:01;71.90;;;29.05;;
26516;SDS011;14190;51.342;6.338;2022-12-17T09:12:46;77.40;;;31.05;;
26516;SDS011;14190;51.342;6.338;2022-12-17T09:15:32;73.28;;;30.27;;
26516;SDS011;14190;51.342;6.338;2022-12-17T09:18:18;71.15;;;31.42;;
26516;SDS011;14190;51.342;6.338;2022-12-17T09:21:04;84.10;;;32.88;;
26516;SDS011;14190;51.342;6.338;2022-12-17T09:23:52;70.05;;;30.90;;
26516;SDS011;14190;51.342;6.338;2022-12-17T09:26:38;76.80;;;32.03;;
26516;SDS011;14190;51.342;6.338;2022-12-17T09:29:25;71.50;;;30.68;;
26516;SDS011;14190;51.342;6.338;2022-12-17T09:32:10;77.87;;;32.88;;
26516;SDS011;14190;51.342;6.338;2022-12-17T09:34:56;78.33;;;32.40;;
26516;SDS011;14190;51.342;6.338;2022-12-17T09:37:49;76.22;;;32.00;;
26516;SDS011;14190;51.342;6.338;2022-12-17T09:40:31;79.72;;;32.20;;
26516;SDS011;14190;51.342;6.338;2022-12-17T09:43:25;69.60;;;31.65;;
26516;SDS011;14190;51.342;6.338;2022-12-17T09:46:16;83.37;;;33.13;;
26516;SDS011;14190;51.342;6.338;2022-12-17T09:52:19;76.65;;;34.60;;
26516;SDS011;14190;51.342;6.338;2022-12-17T09:57:57;79.65;;;35.83;;
26516;SDS011;14190;51.342;6.338;2022-12-17T10:00:43;70.72;;;31.55;;
26516;SDS011;14190;51.342;6.338;2022-12-17T10:03:28;80.28;;;34.27;;
26516;SDS011;14190;51.342;6.338;2022-12-17T10:06:21;85.67;;;39.42;;
26516;SDS011;14190;51.342;6.338;2022-12-17T10:09:11;105.07;;;45.45;;
26516;SDS011;14190;51.342;6.338;2022-12-17T10:11:58;90.27;;;37.50;;
26516;SDS011;14190;51.342;6.338;2022-12-17T10:14:44;81.70;;;37.88;;
26516;SDS011;14190;51.342;6.338;2022-12-17T10:17:29;84.97;;;36.20;;
26516;SDS011;14190;51.342;6.338;2022-12-17T10:20:22;73.30;;;33.10;;
26516;SDS011;14190;51.342;6.338;2022-12-17T10:23:07;75.32;;;34.78;;
26516;SDS011;14190;51.342;6.338;2022-12-17T10:25:54;72.92;;;33.83;;
26516;SDS011;14190;51.342;6.338;2022-12-17T10:28:40;67.72;;;31.33;;
26516;SDS011;14190;51.342;6.338;2022-12-17T10:31:27;77.42;;;31.50;;
26516;SDS011;14190;51.342;6.338;2022-12-17T10:34:14;71.17;;;29.37;;
26516;SDS011;14190;51.342;6.338;2022-12-17T10:36:59;81.53;;;33.38;;
26516;SDS011;14190;51.342;6.338;2022-12-17T10:39:55;83.95;;;31.82;;
26516;SDS011;14190;51.342;6.338;2022-12-17T10:42:42;77.53;;;34.78;;
26516;SDS011;14190;51.342;6.338;2022-12-17T10:45:30;81.45;;;34.53;;
26516;SDS011;14190;51.342;6.338;2022-12-17T10:51:13;87.57;;;35.93;;
26516;SDS011;14190;51.342;6.338;2022-12-17T10:53:52;77.65;;;33.70;;
26516;SDS011;14190;51.342;6.338;2022-12-17T10:56:38;80.62;;;32.30;;
26516;SDS011;14190;51.342;6.338;2022-12-17T10:59:31;78.33;;;32.93;;
26516;SDS011;14190;51.342;6.338;2022-12-17T11:02:21;77.93;;;34.50;;
26516;SDS011;14190;51.342;6.338;2022-12-17T11:05:11;73.67;;;33.42;;
26516;SDS011;14190;51.342;6.338;2022-12-17T11:07:54;80.72;;;33.78;;
26516;SDS011;14190;51.342;6.338;2022-12-17T11:10:39;85.60;;;36.23;;
26516;SDS011;14190;51.342;6.338;2022-12-17T11:13:33;90.62;;;36.88;;
26516;SDS011;14190;51.342;6.338;2022-12-17T11:16:24;82.72;;;36.80;;
26516;SDS011;14190;51.342;6.338;2022-12-17T11:22:02;88.05;;;33.25;;
26516;SDS011;14190;51.342;6.338;2022-12-17T11:25:02;84.83;;;37.60;;
26516;SDS011;14190;51.342;6.338;2022-12-17T11:27:47;93.40;;;38.20;;
26516;SDS011;14190;51.342;6.338;2022-12-17T11:30:36;92.97;;;38.85;;
26516;SDS011;14190;51.342;6.338;2022-12-17T11:33:21;96.82;;;39.98;;
26516;SDS011;14190;51.342;6.338;2022-12-17T11:36:11;103.47;;;41.98;;
26516;SDS011;14190;51.342;6.338;2022-12-17T11:39:10;121.85;;;49.33;;
26516;SDS011;14190;51.342;6.338;2022-12-17T11:41:59;315.02;;;128.42;;
26516;SDS011;14190;51.342;6.338;2022-12-17T11:44:51;130.97;;;57.43;;
26516;SDS011;14190;51.342;6.338;2022-12-17T11:50:31;110.30;;;44.63;;
26516;SDS011;14190;51.342;6.338;2022-12-17T11:53:18;100.58;;;41.83;;
26516;SDS011;14190;51.342;6.338;2022-12-17T11:58:55;94.15;;;40.15;;
26516;SDS011;14190;51.342;6.338;2022-12-17T12:01:46;87.08;;;37.67;;
26516;SDS011;14190;51.342;6.338;2022-12-17T12:04:37;90.72;;;36.42;;
26516;SDS011;14190;51.342;6.338;2022-12-17T12:07:36;83.03;;;35.88;;
26516;SDS011;14190;51.342;6.338;2022-12-17T12:10:19;89.60;;;35.92;;
26516;SDS011;14190;51.342;6.338;2022-12-17T12:13:11;84.15;;;33.42;;
26516;SDS011;14190;51.342;6.338;2022-12-17T12:27:38;89.72;;;38.00;;
26516;SDS011;14190;51.342;6.338;2022-12-17T12:30:23;94.42;;;39.35;;
26516;SDS011;14190;51.342;6.338;2022-12-17T12:33:19;91.82;;;36.58;;
26516;SDS011;14190;51.342;6.338;2022-12-17T12:36:03;86.67;;;36.77;;
26516;SDS011;14190;51.342;6.338;2022-12-17T12:38:52;95.28;;;37.33;;
26516;SDS011;14190;51.342;6.338;2022-12-17T12:41:48;97.30;;;36.88;;
26516;SDS011;14190;51.342;6.338;2022-12-17T12:44:37;97.02;;;38.75;;
26516;SDS011;14190;51.342;6.338;2022-12-17T12:47:24;93.17;;;38.53;;
26516;SDS011;14190;51.342;6.338;2022-12-17T12:52:56;103.45;;;39.65;;
26516;SDS011;14190;51.342;6.338;2022-12-17T12:55:41;97.88;;;37.10;;
26516;SDS011;14190;51.342;6.338;2022-12-17T12:58:29;92.65;;;38.85;;
26516;SDS011;14190;51.342;6.338;2022-12-17T13:01:15;97.88;;;38.98;;
26516;SDS011;14190;51.342;6.338;2022-12-17T13:04:02;104.90;;;41.60;;
26516;SDS011;14190;51.342;6.338;2022-12-17T13:06:50;109.20;;;42.10;;
26516;SDS011;14190;51.342;6.338;2022-12-17T13:09:36;104.23;;;40.10;;
26516;SDS011;14190;51.342;6.338;2022-12-17T13:19:44;101.87;;;39.45;;
26516;SDS011;14190;51.342;6.338;2022-12-17T13:24:45;111.42;;;44.08;;
26516;SDS011;14190;51.342;6.338;2022-12-17T13:33:02;108.87;;;43.60;;
26516;SDS011;14190;51.342;6.338;2022-12-17T13:35:42;108.12;;;43.48;;
26516;SDS011;14190;51.342;6.338;2022-12-17T13:43:23;110.57;;;45.75;;
26516;SDS011;14190;51.342;6.338;2022-12-17T13:45:51;111.17;;;44.93;;
26516;SDS011;14190;51.342;6.338;2022-12-17T13:48:22;111.97;;;44.50;;
26516;SDS011;14190;51.342;6.338;2022-12-17T13:50:57;111.85;;;41.80;;
26516;SDS011;14190;51.342;6.338;2022-12-17T13:53:25;104.50;;;42.43;;
26516;SDS011;14190;51.342;6.338;2022-12-17T13:55:54;106.30;;;44.10;;
26516;SDS011;14190;51.342;6.338;2022-12-17T13:58:23;110.60;;;42.40;;
26516;SDS011;14190;51.342;6.338;2022-12-17T14:00:51;100.95;;;44.08;;
26516;SDS011;14190;51.342;6.338;2022-12-17T14:03:19;110.90;;;44.67;;
26516;SDS011;14190;51.342;6.338;2022-12-17T14:05:49;115.65;;;45.45;;
26516;SDS011;14190;51.342;6.338;2022-12-17T14:08:17;117.70;;;46.05;;
26516;SDS011;14190;51.342;6.338;2022-12-17T14:10:48;120.60;;;49.50;;
26516;SDS011;14190;51.342;6.338;2022-12-17T14:13:15;118.15;;;46.60;;
26516;SDS011;14190;51.342;6.338;2022-12-17T14:15:46;113.65;;;47.15;;
26516;SDS011;14190;51.342;6.338;2022-12-17T14:18:14;106.97;;;45.03;;
26516;SDS011;14190;51.342;6.338;2022-12-17T14:20:43;139.52;;;51.88;;
26516;SDS011;14190;51.342;6.338;2022-12-17T14:25:43;126.53;;;50.83;;
26516;SDS011;14190;51.342;6.338;2022-12-17T14:28:23;129.72;;;50.83;;
26516;SDS011;14190;51.342;6.338;2022-12-17T14:30:51;121.80;;;50.43;;
26516;SDS011;14190;51.342;6.338;2022-12-17T14:33:27;117.90;;;49.53;;
26516;SDS011;14190;51.342;6.338;2022-12-17T14:35:55;131.65;;;49.53;;
26516;SDS011;14190;51.342;6.338;2022-12-17T14:38:23;124.90;;;48.35;;
26516;SDS011;14190;51.342;6.338;2022-12-17T14:40:51;131.22;;;56.75;;
26516;SDS011;14190;51.342;6.338;2022-12-17T14:43:23;130.05;;;49.98;;
26516;SDS011;14190;51.342;6.338;2022-12-17T14:45:51;121.90;;;47.93;;
26516;SDS011;14190;51.342;6.338;2022-12-17T14:48:37;116.08;;;48.52;;
26516;SDS011;14190;51.342;6.338;2022-12-17T14:51:26;122.33;;;49.83;;
26516;SDS011;14190;51.342;6.338;2022-12-17T14:53:52;116.75;;;48.58;;
26516;SDS011;14190;51.342;6.338;2022-12-17T14:56:20;134.47;;;56.23;;
26516;SDS011;14190;51.342;6.338;2022-12-17T14:58:48;122.25;;;53.55;;
26516;SDS011;14190;51.342;6.338;2022-12-17T15:01:16;128.55;;;56.50;;
26516;SDS011;14190;51.342;6.338;2022-12-17T15:03:43;125.95;;;56.02;;
26516;SDS011;14190;51.342;6.338;2022-12-17T15:06:15;122.50;;;50.70;;
26516;SDS011;14190;51.342;6.338;2022-12-17T15:08:44;117.25;;;48.10;;
26516;SDS011;14190;51.342;6.338;2022-12-17T15:11:13;144.70;;;62.05;;
26516;SDS011;14190;51.342;6.338;2022-12-17T15:13:41;207.83;;;85.07;;
26516;SDS011;14190;51.342;6.338;2022-12-17T15:16:09;131.60;;;54.67;;
26516;SDS011;14190;51.342;6.338;2022-12-17T15:18:36;128.00;;;55.80;;
26516;SDS011;14190;51.342;6.338;2022-12-17T15:21:04;115.17;;;51.08;;
26516;SDS011;14190;51.342;6.338;2022-12-17T15:23:31;120.40;;;49.27;;
26516;SDS011;14190;51.342;6.338;2022-12-17T15:25:59;109.10;;;48.95;;
26516;SDS011;14190;51.342;6.338;2022-12-17T15:28:26;127.92;;;54.45;;
26516;SDS011;14190;51.342;6.338;2022-12-17T15:30:54;115.50;;;48.05;;
26516;SDS011;14190;51.342;6.338;2022-12-17T15:33:21;127.65;;;49.38;;
26516;SDS011;14190;51.342;6.338;2022-12-17T15:35:49;117.45;;;49.95;;
26516;SDS011;14190;51.342;6.338;2022-12-17T15:38:16;123.20;;;50.45;;
26516;SDS011;14190;51.342;6.338;2022-12-17T15:40:43;120.82;;;55.35;;
26516;SDS011;14190;51.342;6.338;2022-12-17T15:43:11;123.05;;;51.08;;
26516;SDS011;14190;51.342;6.338;2022-12-17T15:48:08;127.23;;;55.53;;
26516;SDS011;14190;51.342;6.338;2022-12-17T15:50:36;120.87;;;50.30;;
26516;SDS011;14190;51.342;6.338;2022-12-17T15:53:04;126.58;;;49.65;;
26516;SDS011;14190;51.342;6.338;2022-12-17T15:55:31;127.40;;;51.00;;
26516;SDS011;14190;51.342;6.338;2022-12-17T15:57:58;123.13;;;48.48;;
26516;SDS011;14190;51.342;6.338;2022-12-17T16:00:26;124.12;;;50.98;;
26516;SDS011;14190;51.342;6.338;2022-12-17T16:02:53;131.22;;;52.15;;
26516;SDS011;14190;51.342;6.338;2022-12-17T16:05:21;131.78;;;53.13;;
26516;SDS011;14190;51.342;6.338;2022-12-17T16:07:49;124.38;;;51.70;;
26516;SDS011;14190;51.342;6.338;2022-12-17T16:10:16;124.42;;;54.05;;
26516;SDS011;14190;51.342;6.338;2022-12-17T16:12:44;136.62;;;55.88;;
26516;SDS011;14190;51.342;6.338;2022-12-17T16:15:12;142.72;;;57.58;;
26516;SDS011;14190;51.342;6.338;2022-12-17T16:17:39;146.90;;;57.38;;
26516;SDS011;14190;51.342;6.338;2022-12-17T16:20:07;142.10;;;58.48;;
26516;SDS011;14190;51.342;6.338;2022-12-17T16:22:35;135.65;;;54.90;;
26516;SDS011;14190;51.342;6.338;2022-12-17T16:25:03;144.57;;;58.78;;
26516;SDS011;14190;51.342;6.338;2022-12-17T16:27:30;127.65;;;51.92;;
26516;SDS011;14190;51.342;6.338;2022-12-17T16:29:58;132.87;;;55.30;;
26516;SDS011;14190;51.342;6.338;2022-12-17T16:32:25;139.25;;;53.52;;
26516;SDS011;14190;51.342;6.338;2022-12-17T16:34:53;134.95;;;54.10;;
26516;SDS011;14190;51.342;6.338;2022-12-17T16:37:20;139.68;;;56.50;;
26516;SDS011;14190;51.342;6.338;2022-12-17T16:39:47;141.00;;;57.08;;
26516;SDS011;14190;51.342;6.338;2022-12-17T16:42:16;144.65;;;56.63;;
26516;SDS011;14190;51.342;6.338;2022-12-17T16:44:43;141.50;;;56.33;;
26516;SDS011;14190;51.342;6.338;2022-12-17T16:47:10;147.87;;;58.45;;
26516;SDS011;14190;51.342;6.338;2022-12-17T16:49:38;128.72;;;54.98;;